UCA4288 KELP-KIAH
Flight info
| Callsign | UCA4288 |
|---|---|
| Flight time | 1h 29m |
| Altitude | 35000 |
| Route | TDOWN3 SFL DCT FUSCO DCT DIESL TTORO3 |
| Aircraft | E145/M-SDFGIRW/S |
Departure
| Time | 2026-04-22 03:36 |
|---|---|
| Airport | El Paso International Airport (KELP) |
Arrival
| Time | 2026-04-22 05:05 |
|---|---|
| Airport | George Bush Intercontinental Airport (KIAH) |
| Time | Latitude | Longitude | Altitude | Speed | Heading |
|---|---|---|---|---|---|
| 2026-04-22 03:04 | 31.79978 | -106.39365 | 3923 ft | 0 kts | 338° |
| 2026-04-22 03:05 | 31.79977 | -106.39365 | 3923 ft | 0 kts | 338° |
| 2026-04-22 03:19 | 31.79978 | -106.39365 | 3923 ft | 0 kts | 338° |
| 2026-04-22 03:20 | 31.79968 | -106.39360 | 3923 ft | 2 kts | 338° |
| 2026-04-22 03:20 | 31.79954 | -106.39353 | 3923 ft | 2 kts | 338° |
| 2026-04-22 03:20 | 31.79940 | -106.39348 | 3923 ft | 2 kts | 360° |
| 2026-04-22 03:21 | 31.79926 | -106.39353 | 3922 ft | 2 kts | 48° |
| 2026-04-22 03:21 | 31.79922 | -106.39360 | 3922 ft | 1 kts | 70° |
| 2026-04-22 03:21 | 31.79925 | -106.39339 | 3923 ft | 1 kts | 83° |
| 2026-04-22 03:21 | 31.79928 | -106.39326 | 3923 ft | 0 kts | 76° |
| 2026-04-22 03:26 | 31.79930 | -106.39318 | 3923 ft | 1 kts | 76° |
| 2026-04-22 03:26 | 31.79934 | -106.39298 | 3924 ft | 3 kts | 77° |
| 2026-04-22 03:26 | 31.79941 | -106.39265 | 3924 ft | 5 kts | 71° |
| 2026-04-22 03:27 | 31.79958 | -106.39210 | 3924 ft | 8 kts | 76° |
| 2026-04-22 03:27 | 31.79974 | -106.39135 | 3924 ft | 10 kts | 76° |
| 2026-04-22 03:27 | 31.79988 | -106.39045 | 3924 ft | 12 kts | 89° |
| 2026-04-22 03:27 | 31.79989 | -106.38944 | 3925 ft | 12 kts | 90° |
| 2026-04-22 03:28 | 31.79989 | -106.38839 | 3927 ft | 12 kts | 90° |
| 2026-04-22 03:28 | 31.79990 | -106.38734 | 3929 ft | 12 kts | 90° |
| 2026-04-22 03:28 | 31.79990 | -106.38632 | 3931 ft | 12 kts | 89° |
| 2026-04-22 03:28 | 31.79991 | -106.38531 | 3933 ft | 12 kts | 89° |
| 2026-04-22 03:29 | 31.79992 | -106.38428 | 3935 ft | 12 kts | 90° |
| 2026-04-22 03:29 | 31.79992 | -106.38328 | 3937 ft | 12 kts | 90° |
| 2026-04-22 03:29 | 31.79992 | -106.38220 | 3937 ft | 14 kts | 90° |
| 2026-04-22 03:29 | 31.79993 | -106.38102 | 3938 ft | 14 kts | 90° |
| 2026-04-22 03:30 | 31.79992 | -106.37980 | 3940 ft | 14 kts | 91° |
| 2026-04-22 03:30 | 31.79988 | -106.37852 | 3940 ft | 16 kts | 93° |
| 2026-04-22 03:30 | 31.79982 | -106.37715 | 3942 ft | 16 kts | 94° |
| 2026-04-22 03:30 | 31.79975 | -106.37581 | 3944 ft | 16 kts | 93° |
| 2026-04-22 03:31 | 31.79969 | -106.37447 | 3946 ft | 16 kts | 93° |
| 2026-04-22 03:31 | 31.79962 | -106.37309 | 3947 ft | 17 kts | 94° |
| 2026-04-22 03:31 | 31.79954 | -106.37161 | 3949 ft | 17 kts | 94° |
| 2026-04-22 03:31 | 31.79948 | -106.37019 | 3952 ft | 17 kts | 94° |
| 2026-04-22 03:32 | 31.79940 | -106.36877 | 3954 ft | 17 kts | 93° |
| 2026-04-22 03:32 | 31.79933 | -106.36732 | 3955 ft | 18 kts | 94° |
| 2026-04-22 03:32 | 31.79925 | -106.36575 | 3955 ft | 19 kts | 93° |
| 2026-04-22 03:32 | 31.79919 | -106.36440 | 3954 ft | 16 kts | 93° |
| 2026-04-22 03:33 | 31.79911 | -106.36292 | 3951 ft | 18 kts | 94° |
| 2026-04-22 03:33 | 31.79905 | -106.36164 | 3949 ft | 12 kts | 93° |
| 2026-04-22 03:33 | 31.79900 | -106.36073 | 3947 ft | 8 kts | 94° |
| 2026-04-22 03:33 | 31.79910 | -106.36003 | 3946 ft | 7 kts | 48° |
| 2026-04-22 03:34 | 31.79966 | -106.35986 | 3946 ft | 9 kts | 5° |
| 2026-04-22 03:34 | 31.80036 | -106.35982 | 3946 ft | 10 kts | 3° |
| 2026-04-22 03:34 | 31.80069 | -106.36004 | 3946 ft | 5 kts | 277° |
| 2026-04-22 03:34 | 31.80069 | -106.36020 | 3946 ft | 0 kts | 272° |
| 2026-04-22 03:35 | 31.80072 | -106.36077 | 3947 ft | 27 kts | 273° |
| 2026-04-22 03:35 | 31.80096 | -106.36607 | 3955 ft | 100 kts | 273° |
| 2026-04-22 03:35 | 31.80144 | -106.37667 | 3944 ft | 157 kts | 273° |
| 2026-04-22 03:35 | 31.80208 | -106.39037 | 4267 ft | 172 kts | 273° |
| 2026-04-22 03:36 | 31.80256 | -106.40479 | 4818 ft | 185 kts | 266° |
| 2026-04-22 03:36 | 31.79753 | -106.41853 | 5450 ft | 191 kts | 227° |
| 2026-04-22 03:36 | 31.78556 | -106.42589 | 6016 ft | 207 kts | 192° |
| 2026-04-22 03:36 | 31.77098 | -106.42370 | 6582 ft | 226 kts | 158° |
| 2026-04-22 03:37 | 31.75766 | -106.41206 | 7010 ft | 251 kts | 134° |
| 2026-04-22 03:37 | 31.74770 | -106.39423 | 7295 ft | 280 kts | 115° |
| 2026-04-22 03:37 | 31.73993 | -106.37254 | 7972 ft | 290 kts | 112° |
| 2026-04-22 03:37 | 31.73277 | -106.35091 | 8876 ft | 290 kts | 111° |
| 2026-04-22 03:38 | 31.72558 | -106.32872 | 9723 ft | 291 kts | 110° |
| 2026-04-22 03:38 | 31.72233 | -106.30534 | 10475 ft | 296 kts | 88° |
| 2026-04-22 03:38 | 31.72314 | -106.28099 | 11085 ft | 306 kts | 88° |
| 2026-04-22 03:38 | 31.72384 | -106.25588 | 11624 ft | 318 kts | 88° |
| 2026-04-22 03:39 | 31.72754 | -106.22997 | 12137 ft | 329 kts | 68° |
| 2026-04-22 03:39 | 31.73901 | -106.20654 | 12665 ft | 338 kts | 57° |
| 2026-04-22 03:39 | 31.75149 | -106.18269 | 13212 ft | 348 kts | 58° |
| 2026-04-22 03:39 | 31.76434 | -106.15796 | 13731 ft | 358 kts | 58° |
| 2026-04-22 03:40 | 31.77747 | -106.13264 | 14247 ft | 367 kts | 58° |
| 2026-04-22 03:40 | 31.78771 | -106.10517 | 14700 ft | 376 kts | 77° |
| 2026-04-22 03:40 | 31.78928 | -106.07475 | 15389 ft | 376 kts | 92° |
| 2026-04-22 03:40 | 31.78879 | -106.04379 | 15982 ft | 381 kts | 91° |
| 2026-04-22 03:41 | 31.78842 | -106.01311 | 16654 ft | 382 kts | 91° |
| 2026-04-22 03:41 | 31.78804 | -105.98179 | 17274 ft | 385 kts | 91° |
| 2026-04-22 03:41 | 31.78765 | -105.95026 | 17839 ft | 389 kts | 91° |
| 2026-04-22 03:41 | 31.78726 | -105.91866 | 18481 ft | 391 kts | 91° |
| 2026-04-22 03:42 | 31.78685 | -105.88686 | 19202 ft | 390 kts | 90° |
| 2026-04-22 03:42 | 31.78644 | -105.85525 | 19858 ft | 391 kts | 90° |
| 2026-04-22 03:42 | 31.78602 | -105.82338 | 20580 ft | 389 kts | 90° |
| 2026-04-22 03:42 | 31.78559 | -105.79204 | 21273 ft | 388 kts | 90° |
| 2026-04-22 03:43 | 31.78516 | -105.76041 | 21975 ft | 387 kts | 90° |
| 2026-04-22 03:43 | 31.78472 | -105.72899 | 22658 ft | 387 kts | 90° |
| 2026-04-22 03:43 | 31.78418 | -105.69727 | 23328 ft | 387 kts | 91° |
| 2026-04-22 03:43 | 31.78240 | -105.66608 | 23998 ft | 386 kts | 92° |
| 2026-04-22 03:44 | 31.78058 | -105.63453 | 24657 ft | 386 kts | 92° |
| 2026-04-22 03:44 | 31.77880 | -105.60355 | 25263 ft | 386 kts | 92° |
| 2026-04-22 03:44 | 31.77698 | -105.57194 | 25868 ft | 387 kts | 92° |
| 2026-04-22 03:44 | 31.77517 | -105.54048 | 26434 ft | 388 kts | 92° |
| 2026-04-22 03:45 | 31.77335 | -105.50926 | 27055 ft | 387 kts | 92° |
| 2026-04-22 03:45 | 31.77152 | -105.47778 | 27620 ft | 387 kts | 92° |
| 2026-04-22 03:45 | 31.76969 | -105.44638 | 28222 ft | 387 kts | 92° |
| 2026-04-22 03:45 | 31.76784 | -105.41496 | 28775 ft | 387 kts | 92° |
| 2026-04-22 03:46 | 31.76598 | -105.38329 | 29311 ft | 388 kts | 92° |
| 2026-04-22 03:46 | 31.76412 | -105.35202 | 29890 ft | 387 kts | 92° |
| 2026-04-22 03:46 | 31.76225 | -105.32049 | 30441 ft | 386 kts | 92° |
| 2026-04-22 03:46 | 31.76038 | -105.28919 | 30994 ft | 385 kts | 92° |
| 2026-04-22 03:47 | 31.75850 | -105.25793 | 31515 ft | 385 kts | 92° |
| 2026-04-22 03:47 | 31.75665 | -105.22714 | 32023 ft | 384 kts | 92° |
| 2026-04-22 03:47 | 31.75476 | -105.19594 | 32530 ft | 384 kts | 92° |
| 2026-04-22 03:47 | 31.75287 | -105.16473 | 32983 ft | 384 kts | 92° |
| 2026-04-22 03:48 | 31.75096 | -105.13332 | 33507 ft | 383 kts | 92° |
| 2026-04-22 03:48 | 31.74907 | -105.10252 | 33944 ft | 384 kts | 92° |
| 2026-04-22 03:48 | 31.74612 | -105.07163 | 34395 ft | 384 kts | 98° |
| 2026-04-22 03:48 | 31.74181 | -105.04073 | 34884 ft | 383 kts | 98° |
| 2026-04-22 03:49 | 31.73752 | -105.00944 | 35134 ft | 388 kts | 98° |
| 2026-04-22 03:49 | 31.73316 | -104.97774 | 35141 ft | 396 kts | 98° |
| 2026-04-22 03:49 | 31.72415 | -104.91228 | 35169 ft | 412 kts | 98° |
| 2026-04-22 03:50 | 31.71457 | -104.84297 | 35181 ft | 428 kts | 98° |
| 2026-04-22 03:50 | 31.70453 | -104.77062 | 35197 ft | 442 kts | 98° |
| 2026-04-22 03:51 | 31.69439 | -104.69789 | 35198 ft | 455 kts | 98° |
| 2026-04-22 03:51 | 31.68406 | -104.62412 | 35182 ft | 460 kts | 98° |
| 2026-04-22 03:52 | 31.67365 | -104.55014 | 35171 ft | 462 kts | 98° |
| 2026-04-22 03:52 | 31.66308 | -104.47533 | 35159 ft | 465 kts | 98° |
| 2026-04-22 03:53 | 31.65239 | -104.39991 | 35152 ft | 467 kts | 98° |
| 2026-04-22 03:53 | 31.64164 | -104.32448 | 35130 ft | 469 kts | 99° |
| 2026-04-22 03:54 | 31.63085 | -104.24906 | 35128 ft | 468 kts | 99° |
| 2026-04-22 03:54 | 31.62005 | -104.17394 | 35119 ft | 465 kts | 99° |
| 2026-04-22 03:55 | 31.60925 | -104.09905 | 35110 ft | 463 kts | 99° |
| 2026-04-22 03:55 | 31.59855 | -104.02527 | 35108 ft | 461 kts | 99° |
| 2026-04-22 03:56 | 31.58779 | -103.95136 | 35101 ft | 459 kts | 99° |
| 2026-04-22 03:56 | 31.57696 | -103.87725 | 35093 ft | 458 kts | 99° |
| 2026-04-22 03:57 | 31.56622 | -103.80409 | 35089 ft | 457 kts | 99° |
| 2026-04-22 03:57 | 31.55547 | -103.73110 | 35085 ft | 455 kts | 99° |
| 2026-04-22 03:58 | 31.54462 | -103.65782 | 35084 ft | 454 kts | 99° |
| 2026-04-22 03:58 | 31.53384 | -103.58523 | 35075 ft | 454 kts | 99° |
| 2026-04-22 03:59 | 31.52304 | -103.51284 | 35071 ft | 453 kts | 99° |
| 2026-04-22 03:59 | 31.51213 | -103.43997 | 35073 ft | 452 kts | 99° |
| 2026-04-22 04:00 | 31.50126 | -103.36770 | 35076 ft | 451 kts | 99° |
| 2026-04-22 04:00 | 31.49029 | -103.29508 | 35070 ft | 451 kts | 100° |
| 2026-04-22 04:01 | 31.47921 | -103.22197 | 35074 ft | 451 kts | 100° |
| 2026-04-22 04:01 | 31.46820 | -103.14957 | 35072 ft | 453 kts | 100° |
| 2026-04-22 04:02 | 31.45708 | -103.07680 | 35073 ft | 455 kts | 100° |
| 2026-04-22 04:02 | 31.44585 | -103.00361 | 35071 ft | 457 kts | 100° |
| 2026-04-22 04:03 | 31.43462 | -102.93064 | 35072 ft | 459 kts | 100° |
| 2026-04-22 04:03 | 31.42323 | -102.85697 | 35073 ft | 461 kts | 100° |
| 2026-04-22 04:04 | 31.41173 | -102.78288 | 35076 ft | 462 kts | 100° |
| 2026-04-22 04:04 | 31.40018 | -102.70876 | 35073 ft | 464 kts | 100° |
| 2026-04-22 04:05 | 31.38850 | -102.63408 | 35072 ft | 465 kts | 100° |
| 2026-04-22 04:05 | 31.37686 | -102.55998 | 35078 ft | 466 kts | 100° |
| 2026-04-22 04:06 | 31.36509 | -102.48530 | 35079 ft | 467 kts | 100° |
| 2026-04-22 04:06 | 31.35330 | -102.41084 | 35076 ft | 469 kts | 100° |
| 2026-04-22 04:07 | 31.34141 | -102.33601 | 35079 ft | 470 kts | 101° |
| 2026-04-22 04:07 | 31.32949 | -102.26131 | 35082 ft | 470 kts | 101° |
| 2026-04-22 04:08 | 31.31743 | -102.18596 | 35089 ft | 470 kts | 101° |
| 2026-04-22 04:08 | 31.30529 | -102.11043 | 35082 ft | 470 kts | 101° |
| 2026-04-22 04:09 | 31.29317 | -102.03536 | 35082 ft | 470 kts | 101° |
| 2026-04-22 04:09 | 31.28102 | -101.96036 | 35088 ft | 469 kts | 101° |
| 2026-04-22 04:10 | 31.26887 | -101.88563 | 35074 ft | 469 kts | 101° |
| 2026-04-22 04:10 | 31.25671 | -101.81116 | 35090 ft | 469 kts | 101° |
| 2026-04-22 04:11 | 31.24445 | -101.73634 | 35084 ft | 469 kts | 101° |
| 2026-04-22 04:11 | 31.23211 | -101.66133 | 35090 ft | 469 kts | 101° |
| 2026-04-22 04:12 | 31.21982 | -101.58691 | 35099 ft | 469 kts | 101° |
| 2026-04-22 04:12 | 31.20743 | -101.51218 | 35098 ft | 469 kts | 101° |
| 2026-04-22 04:13 | 31.19506 | -101.43780 | 35110 ft | 470 kts | 101° |
| 2026-04-22 04:13 | 31.18252 | -101.36272 | 35107 ft | 470 kts | 101° |
| 2026-04-22 04:14 | 31.17266 | -101.28769 | 35114 ft | 469 kts | 92° |
| 2026-04-22 04:14 | 31.16790 | -101.21170 | 35112 ft | 469 kts | 95° |
| 2026-04-22 04:15 | 31.16216 | -101.13612 | 35109 ft | 469 kts | 95° |
| 2026-04-22 04:15 | 31.15632 | -101.06061 | 35126 ft | 469 kts | 95° |
| 2026-04-22 04:16 | 31.14744 | -100.94701 | 35125 ft | 470 kts | 95° |
| 2026-04-22 04:17 | 31.14146 | -100.87129 | 35124 ft | 470 kts | 95° |
| 2026-04-22 04:17 | 31.13545 | -100.79576 | 35127 ft | 470 kts | 95° |
| 2026-04-22 04:18 | 31.12935 | -100.71957 | 35126 ft | 470 kts | 95° |
| 2026-04-22 04:18 | 31.12322 | -100.64367 | 35126 ft | 471 kts | 95° |
| 2026-04-22 04:19 | 31.11703 | -100.56749 | 35126 ft | 471 kts | 95° |
| 2026-04-22 04:19 | 31.11080 | -100.49146 | 35124 ft | 472 kts | 95° |
| 2026-04-22 04:20 | 31.10451 | -100.41530 | 35126 ft | 472 kts | 95° |
| 2026-04-22 04:20 | 31.09821 | -100.33948 | 35125 ft | 473 kts | 95° |
| 2026-04-22 04:21 | 31.09178 | -100.26266 | 35120 ft | 473 kts | 95° |
| 2026-04-22 04:21 | 31.08536 | -100.18657 | 35122 ft | 473 kts | 95° |
| 2026-04-22 04:22 | 31.07888 | -100.11027 | 35110 ft | 473 kts | 95° |
| 2026-04-22 04:22 | 31.07235 | -100.03391 | 35103 ft | 473 kts | 95° |
| 2026-04-22 04:23 | 31.06582 | -99.95801 | 35109 ft | 473 kts | 95° |
| 2026-04-22 04:23 | 31.05921 | -99.88182 | 35109 ft | 473 kts | 95° |
| 2026-04-22 04:24 | 31.05252 | -99.80521 | 35112 ft | 473 kts | 95° |
| 2026-04-22 04:24 | 31.04584 | -99.72922 | 35116 ft | 473 kts | 95° |
| 2026-04-22 04:25 | 31.03911 | -99.65317 | 35116 ft | 473 kts | 95° |
| 2026-04-22 04:25 | 31.03233 | -99.57709 | 35119 ft | 473 kts | 96° |
| 2026-04-22 04:26 | 31.02550 | -99.50094 | 35123 ft | 473 kts | 96° |
| 2026-04-22 04:26 | 31.01863 | -99.42489 | 35127 ft | 473 kts | 95° |
| 2026-04-22 04:27 | 31.01169 | -99.34856 | 35131 ft | 474 kts | 96° |
| 2026-04-22 04:27 | 31.00470 | -99.27222 | 35125 ft | 474 kts | 96° |
| 2026-04-22 04:28 | 30.99766 | -99.19579 | 35120 ft | 474 kts | 96° |
| 2026-04-22 04:28 | 30.99056 | -99.11926 | 35123 ft | 473 kts | 96° |
| 2026-04-22 04:29 | 30.98347 | -99.04324 | 35126 ft | 473 kts | 96° |
| 2026-04-22 04:29 | 30.97633 | -98.96726 | 35122 ft | 473 kts | 96° |
| 2026-04-22 04:30 | 30.96915 | -98.89131 | 35130 ft | 473 kts | 96° |
| 2026-04-22 04:30 | 30.96207 | -98.81551 | 35128 ft | 473 kts | 98° |
| 2026-04-22 04:31 | 30.95050 | -98.74010 | 35135 ft | 473 kts | 99° |
| 2026-04-22 04:31 | 30.93994 | -98.66497 | 35141 ft | 473 kts | 99° |
| 2026-04-22 04:32 | 30.92938 | -98.58943 | 35141 ft | 473 kts | 99° |
| 2026-04-22 04:32 | 30.91875 | -98.51356 | 35133 ft | 474 kts | 99° |
| 2026-04-22 04:33 | 30.90813 | -98.43814 | 35131 ft | 475 kts | 99° |
| 2026-04-22 04:33 | 30.89742 | -98.36242 | 35129 ft | 475 kts | 99° |
| 2026-04-22 04:34 | 30.88662 | -98.28639 | 35123 ft | 475 kts | 100° |
| 2026-04-22 04:34 | 30.87586 | -98.21092 | 35131 ft | 475 kts | 100° |
| 2026-04-22 04:35 | 30.86503 | -98.13532 | 35132 ft | 475 kts | 100° |
| 2026-04-22 04:35 | 30.85418 | -98.05993 | 35122 ft | 475 kts | 100° |
| 2026-04-22 04:36 | 30.84326 | -97.98433 | 35117 ft | 475 kts | 100° |
| 2026-04-22 04:36 | 30.83222 | -97.90850 | 35123 ft | 476 kts | 100° |
| 2026-04-22 04:37 | 30.82117 | -97.83312 | 35138 ft | 476 kts | 100° |
| 2026-04-22 04:37 | 30.81000 | -97.75736 | 35150 ft | 476 kts | 100° |
| 2026-04-22 04:38 | 30.79877 | -97.68143 | 35153 ft | 476 kts | 100° |
| 2026-04-22 04:38 | 30.78752 | -97.60568 | 35157 ft | 477 kts | 100° |
| 2026-04-22 04:39 | 30.77618 | -97.52966 | 35154 ft | 478 kts | 100° |
| 2026-04-22 04:39 | 30.76494 | -97.45462 | 35045 ft | 468 kts | 100° |
| 2026-04-22 04:39 | 30.75931 | -97.41718 | 34589 ft | 467 kts | 100° |
| 2026-04-22 04:40 | 30.75373 | -97.38011 | 33912 ft | 469 kts | 100° |
| 2026-04-22 04:40 | 30.74810 | -97.34278 | 33271 ft | 471 kts | 101° |
| 2026-04-22 04:40 | 30.74244 | -97.30534 | 32692 ft | 473 kts | 101° |
| 2026-04-22 04:40 | 30.73672 | -97.26756 | 32204 ft | 473 kts | 100° |
| 2026-04-22 04:41 | 30.73108 | -97.23041 | 31718 ft | 472 kts | 101° |
| 2026-04-22 04:41 | 30.72538 | -97.19292 | 31183 ft | 473 kts | 101° |
| 2026-04-22 04:41 | 30.71963 | -97.15518 | 30647 ft | 473 kts | 100° |
| 2026-04-22 04:41 | 30.71389 | -97.11761 | 30109 ft | 473 kts | 100° |
| 2026-04-22 04:42 | 30.70811 | -97.07980 | 29524 ft | 474 kts | 100° |
| 2026-04-22 04:42 | 30.70241 | -97.04263 | 28939 ft | 474 kts | 100° |
| 2026-04-22 04:42 | 30.69659 | -97.00478 | 28291 ft | 476 kts | 100° |
| 2026-04-22 04:42 | 30.69079 | -96.96712 | 27784 ft | 476 kts | 100° |
| 2026-04-22 04:43 | 30.68501 | -96.92963 | 27464 ft | 472 kts | 100° |
| 2026-04-22 04:43 | 30.67926 | -96.89241 | 27165 ft | 464 kts | 100° |
| 2026-04-22 04:43 | 30.67370 | -96.85646 | 27137 ft | 448 kts | 100° |
| 2026-04-22 04:43 | 30.66828 | -96.82154 | 27134 ft | 433 kts | 100° |
| 2026-04-22 04:44 | 30.66302 | -96.78769 | 27135 ft | 420 kts | 100° |
| 2026-04-22 04:44 | 30.65791 | -96.75487 | 27059 ft | 411 kts | 100° |
| 2026-04-22 04:44 | 30.65281 | -96.72220 | 26612 ft | 408 kts | 100° |
| 2026-04-22 04:44 | 30.64778 | -96.69007 | 26095 ft | 406 kts | 100° |
| 2026-04-22 04:45 | 30.64271 | -96.65794 | 25607 ft | 404 kts | 100° |
| 2026-04-22 04:45 | 30.63768 | -96.62601 | 25154 ft | 401 kts | 100° |
| 2026-04-22 04:45 | 30.63275 | -96.59483 | 24679 ft | 394 kts | 100° |
| 2026-04-22 04:45 | 30.62784 | -96.56374 | 24027 ft | 392 kts | 100° |
| 2026-04-22 04:46 | 30.62292 | -96.53273 | 23416 ft | 389 kts | 100° |
| 2026-04-22 04:46 | 30.61807 | -96.50216 | 22840 ft | 384 kts | 100° |
| 2026-04-22 04:46 | 30.61332 | -96.47224 | 22289 ft | 380 kts | 100° |
| 2026-04-22 04:46 | 30.60854 | -96.44224 | 21719 ft | 376 kts | 100° |
| 2026-04-22 04:47 | 30.60000 | -96.41383 | 21125 ft | 371 kts | 121° |
| 2026-04-22 04:47 | 30.58532 | -96.38957 | 20576 ft | 366 kts | 127° |
| 2026-04-22 04:47 | 30.57048 | -96.36599 | 20041 ft | 362 kts | 127° |
| 2026-04-22 04:47 | 30.55568 | -96.34255 | 19493 ft | 359 kts | 128° |
| 2026-04-22 04:48 | 30.54106 | -96.31941 | 18955 ft | 355 kts | 128° |
| 2026-04-22 04:48 | 30.52647 | -96.29634 | 18411 ft | 352 kts | 128° |
| 2026-04-22 04:48 | 30.51207 | -96.27358 | 17886 ft | 349 kts | 128° |
| 2026-04-22 04:48 | 30.49782 | -96.25108 | 17381 ft | 346 kts | 128° |
| 2026-04-22 04:49 | 30.48366 | -96.22873 | 16841 ft | 344 kts | 128° |
| 2026-04-22 04:49 | 30.46974 | -96.20677 | 16327 ft | 342 kts | 128° |
| 2026-04-22 04:49 | 30.45568 | -96.18459 | 15799 ft | 340 kts | 128° |
| 2026-04-22 04:49 | 30.44177 | -96.16269 | 15295 ft | 337 kts | 128° |
| 2026-04-22 04:50 | 30.42804 | -96.14105 | 14784 ft | 335 kts | 128° |
| 2026-04-22 04:50 | 30.41433 | -96.11947 | 14280 ft | 333 kts | 128° |
| 2026-04-22 04:50 | 30.40059 | -96.09785 | 13777 ft | 331 kts | 128° |
| 2026-04-22 04:50 | 30.38709 | -96.07663 | 13301 ft | 328 kts | 128° |
| 2026-04-22 04:51 | 30.37356 | -96.05537 | 12865 ft | 324 kts | 128° |
| 2026-04-22 04:51 | 30.35831 | -96.03716 | 12387 ft | 317 kts | 149° |
| 2026-04-22 04:51 | 30.33823 | -96.02718 | 11949 ft | 308 kts | 165° |
| 2026-04-22 04:51 | 30.31808 | -96.01971 | 11518 ft | 305 kts | 165° |
| 2026-04-22 04:52 | 30.29791 | -96.01223 | 11077 ft | 302 kts | 164° |
| 2026-04-22 04:52 | 30.27799 | -96.00487 | 10640 ft | 299 kts | 164° |
| 2026-04-22 04:52 | 30.25828 | -95.99762 | 10227 ft | 296 kts | 164° |
| 2026-04-22 04:52 | 30.23896 | -95.99050 | 9814 ft | 292 kts | 164° |
| 2026-04-22 04:53 | 30.21962 | -95.98339 | 9389 ft | 289 kts | 163° |
| 2026-04-22 04:53 | 30.20053 | -95.97637 | 8966 ft | 287 kts | 163° |
| 2026-04-22 04:53 | 30.18150 | -95.96938 | 8529 ft | 285 kts | 163° |
| 2026-04-22 04:53 | 30.16281 | -95.96251 | 8112 ft | 283 kts | 163° |
| 2026-04-22 04:54 | 30.14421 | -95.95568 | 7968 ft | 269 kts | 163° |
| 2026-04-22 04:54 | 30.12706 | -95.94933 | 7953 ft | 253 kts | 163° |
| 2026-04-22 04:54 | 30.11059 | -95.94325 | 7948 ft | 239 kts | 163° |
| 2026-04-22 04:54 | 30.09504 | -95.93750 | 7815 ft | 232 kts | 164° |
| 2026-04-22 04:55 | 30.07967 | -95.93183 | 7478 ft | 235 kts | 164° |
| 2026-04-22 04:55 | 30.06414 | -95.92609 | 7219 ft | 235 kts | 164° |
| 2026-04-22 04:55 | 30.04848 | -95.92032 | 7030 ft | 233 kts | 163° |
| 2026-04-22 04:55 | 30.03324 | -95.91469 | 6960 ft | 225 kts | 163° |
| 2026-04-22 04:56 | 30.02026 | -95.90533 | 6971 ft | 225 kts | 131° |
| 2026-04-22 04:56 | 30.01073 | -95.89053 | 6969 ft | 230 kts | 127° |
| 2026-04-22 04:56 | 30.00136 | -95.87556 | 6967 ft | 233 kts | 127° |
| 2026-04-22 04:56 | 29.99180 | -95.86005 | 6963 ft | 237 kts | 122° |
| 2026-04-22 04:57 | 29.98747 | -95.84193 | 6981 ft | 239 kts | 87° |
| 2026-04-22 04:57 | 29.99068 | -95.82322 | 6978 ft | 242 kts | 82° |
| 2026-04-22 04:57 | 29.99188 | -95.80396 | 6969 ft | 241 kts | 88° |
| 2026-04-22 04:57 | 29.99264 | -95.78462 | 6967 ft | 239 kts | 90° |
| 2026-04-22 04:58 | 29.99267 | -95.76563 | 6966 ft | 238 kts | 91° |
| 2026-04-22 04:58 | 29.99266 | -95.74660 | 6757 ft | 237 kts | 90° |
| 2026-04-22 04:58 | 29.99277 | -95.72772 | 6486 ft | 237 kts | 90° |
| 2026-04-22 04:58 | 29.99285 | -95.70857 | 6193 ft | 238 kts | 91° |
| 2026-04-22 04:59 | 29.99293 | -95.68942 | 5882 ft | 240 kts | 91° |
| 2026-04-22 04:59 | 29.99299 | -95.67015 | 5557 ft | 242 kts | 91° |
| 2026-04-22 04:59 | 29.99305 | -95.65098 | 5271 ft | 236 kts | 92° |
| 2026-04-22 04:59 | 29.99310 | -95.63242 | 4923 ft | 231 kts | 92° |
| 2026-04-22 05:00 | 29.99314 | -95.61429 | 4592 ft | 226 kts | 92° |
| 2026-04-22 05:00 | 29.99319 | -95.59631 | 4268 ft | 221 kts | 93° |
| 2026-04-22 05:00 | 29.99323 | -95.57877 | 3955 ft | 216 kts | 94° |
| 2026-04-22 05:00 | 29.99326 | -95.56181 | 3660 ft | 212 kts | 94° |
| 2026-04-22 05:01 | 29.99328 | -95.54506 | 3364 ft | 207 kts | 94° |
| 2026-04-22 05:01 | 29.99331 | -95.52851 | 3074 ft | 203 kts | 94° |
| 2026-04-22 05:01 | 29.99336 | -95.51302 | 2791 ft | 181 kts | 95° |
| 2026-04-22 05:01 | 29.99338 | -95.49949 | 2549 ft | 162 kts | 95° |
| 2026-04-22 05:02 | 29.99339 | -95.48705 | 2334 ft | 148 kts | 95° |
| 2026-04-22 05:02 | 29.99340 | -95.47558 | 2151 ft | 138 kts | 96° |
| 2026-04-22 05:02 | 29.99340 | -95.46461 | 1986 ft | 137 kts | 96° |
| 2026-04-22 05:02 | 29.99340 | -95.45355 | 1794 ft | 137 kts | 96° |
| 2026-04-22 05:03 | 29.99341 | -95.44280 | 1604 ft | 133 kts | 95° |
| 2026-04-22 05:03 | 29.99342 | -95.43222 | 1424 ft | 129 kts | 95° |
| 2026-04-22 05:03 | 29.99342 | -95.42200 | 1252 ft | 126 kts | 94° |
| 2026-04-22 05:03 | 29.99342 | -95.41189 | 1087 ft | 127 kts | 93° |
| 2026-04-22 05:04 | 29.99342 | -95.40160 | 917 ft | 128 kts | 92° |
| 2026-04-22 05:04 | 29.99343 | -95.39130 | 747 ft | 130 kts | 92° |
| 2026-04-22 05:04 | 29.99344 | -95.38079 | 571 ft | 131 kts | 91° |
| 2026-04-22 05:04 | 29.99345 | -95.37028 | 401 ft | 131 kts | 90° |
| 2026-04-22 05:05 | 29.99340 | -95.35980 | 200 ft | 129 kts | 89° |
| 2026-04-22 05:05 | 29.99344 | -95.34970 | 96 ft | 120 kts | 90° |
| 2026-04-22 05:05 | 29.99343 | -95.34139 | 98 ft | 81 kts | 90° |
| 2026-04-22 05:05 | 29.99344 | -95.33735 | 98 ft | 31 kts | 90° |
| 2026-04-22 05:06 | 29.99343 | -95.33525 | 98 ft | 17 kts | 90° |
| 2026-04-22 05:06 | 29.99338 | -95.33375 | 98 ft | 19 kts | 103° |
| 2026-04-22 05:06 | 29.99284 | -95.33238 | 97 ft | 16 kts | 118° |
| 2026-04-22 05:06 | 29.99236 | -95.33140 | 96 ft | 14 kts | 121° |
| 2026-04-22 05:07 | 29.99188 | -95.33048 | 95 ft | 10 kts | 124° |
| 2026-04-22 05:07 | 29.99107 | -95.33028 | 95 ft | 14 kts | 180° |
| 2026-04-22 05:07 | 29.98998 | -95.33028 | 95 ft | 17 kts | 179° |
| 2026-04-22 05:07 | 29.98864 | -95.33026 | 95 ft | 20 kts | 180° |
| 2026-04-22 05:08 | 29.98710 | -95.33026 | 95 ft | 23 kts | 180° |
| 2026-04-22 05:08 | 29.98547 | -95.33026 | 95 ft | 23 kts | 179° |
| 2026-04-22 05:08 | 29.98396 | -95.33026 | 95 ft | 17 kts | 180° |
| 2026-04-22 05:08 | 29.98311 | -95.33041 | 95 ft | 12 kts | 231° |
| 2026-04-22 05:09 | 29.98303 | -95.33151 | 95 ft | 15 kts | 270° |
| 2026-04-22 05:09 | 29.98302 | -95.33285 | 95 ft | 16 kts | 269° |
| 2026-04-22 05:09 | 29.98301 | -95.33423 | 96 ft | 17 kts | 271° |
| 2026-04-22 05:09 | 29.98304 | -95.33559 | 97 ft | 16 kts | 275° |
| 2026-04-22 05:10 | 29.98315 | -95.33695 | 98 ft | 17 kts | 275° |
| 2026-04-22 05:10 | 29.98317 | -95.33824 | 98 ft | 13 kts | 270° |
| 2026-04-22 05:10 | 29.98317 | -95.33929 | 98 ft | 14 kts | 270° |
| 2026-04-22 05:10 | 29.98344 | -95.34039 | 98 ft | 14 kts | 307° |
| 2026-04-22 05:11 | 29.98377 | -95.34145 | 98 ft | 14 kts | 271° |
| 2026-04-22 05:11 | 29.98377 | -95.34274 | 98 ft | 15 kts | 270° |
| 2026-04-22 05:11 | 29.98378 | -95.34366 | 98 ft | 11 kts | 270° |
| 2026-04-22 05:11 | 29.98385 | -95.34407 | 98 ft | 4 kts | 333° |
| 2026-04-22 05:12 | 29.98419 | -95.34408 | 98 ft | 3 kts | 4° |
| 2026-04-22 05:12 | 29.98439 | -95.34406 | 98 ft | 0 kts | 5° |